createdAt,value
2017-03-20T00:00:23.689Z,951.01
2017-03-20T00:01:24.949Z,950.95
2017-03-20T00:02:23.152Z,950.97
2017-03-20T00:03:25.227Z,950.97
2017-03-20T00:04:24.458Z,950.94
2017-03-20T00:05:20.024Z,950.97
2017-03-20T00:06:25.250Z,950.98
2017-03-20T00:07:24.504Z,950.99
2017-03-20T00:08:24.906Z,950.97
2017-03-20T00:09:20.203Z,950.96
2017-03-20T00:10:25.403Z,951.02
2017-03-20T00:11:19.626Z,951.01
2017-03-20T00:12:24.941Z,951.01
2017-03-20T00:13:34.406Z,951.05
2017-03-20T00:14:24.753Z,951.04
2017-03-20T00:15:25.154Z,951.05
2017-03-20T00:16:29.864Z,951.05
2017-03-20T00:17:24.599Z,951.10
2017-03-20T00:18:28.657Z,951.10
2017-03-20T00:19:24.954Z,951.11
2017-03-20T00:20:26.653Z,951.08
2017-03-20T00:21:24.837Z,951.14
2017-03-20T00:22:24.756Z,951.17
2017-03-20T00:23:23.422Z,951.15
2017-03-20T00:24:19.284Z,951.15
2017-03-20T00:25:25.500Z,951.20
2017-03-20T00:26:24.519Z,951.16
2017-03-20T00:27:32.141Z,951.22
2017-03-20T00:28:25.229Z,951.20
2017-03-20T00:29:24.423Z,951.21
2017-03-20T00:31:19.433Z,951.23
2017-03-20T00:32:24.074Z,951.26
2017-03-20T00:33:22.952Z,951.22
2017-03-20T00:34:26.734Z,951.20
2017-03-20T00:35:23.427Z,951.18
2017-03-20T00:36:24.675Z,951.14
2017-03-20T00:37:25.253Z,951.15
2017-03-20T00:38:18.409Z,951.15
2017-03-20T00:39:24.273Z,951.17
2017-03-20T00:40:22.563Z,951.14
2017-03-20T00:41:19.186Z,951.15
2017-03-20T00:42:18.815Z,951.08
2017-03-20T00:43:25.442Z,951.12
2017-03-20T00:44:20.159Z,951.09
2017-03-20T00:45:25.971Z,951.06
2017-03-20T00:46:25.418Z,951.08
2017-03-20T00:47:27.400Z,951.11
2017-03-20T00:48:22.924Z,951.09
2017-03-20T00:49:19.449Z,951.12
2017-03-20T00:50:24.023Z,951.14
2017-03-20T00:51:25.409Z,951.15
2017-03-20T00:52:26.592Z,951.09
2017-03-20T00:53:32.043Z,951.14
2017-03-20T00:54:23.703Z,951.16
2017-03-20T00:55:26.849Z,951.14
2017-03-20T00:56:34.172Z,951.10
2017-03-20T00:57:25.323Z,951.13
2017-03-20T00:58:20.096Z,951.07
2017-03-20T00:59:22.478Z,951.07
2017-03-20T01:00:37.455Z,951.05
2017-03-20T01:01:25.542Z,951.05
2017-03-20T01:02:29.419Z,951.09
2017-03-20T01:03:28.628Z,951.07
2017-03-20T01:04:32.419Z,951.08
2017-03-20T01:05:25.495Z,951.12
2017-03-20T01:06:31.476Z,951.14
2017-03-20T01:07:19.980Z,951.15
2017-03-20T01:08:20.230Z,951.15
2017-03-20T01:09:37.031Z,951.17
2017-03-20T01:10:14.250Z,951.18
2017-03-20T01:11:24.403Z,951.22
2017-03-20T01:12:24.085Z,951.20
2017-03-20T01:13:28.645Z,951.18
2017-03-20T01:14:19.648Z,951.18
2017-03-20T01:15:20.117Z,951.20
2017-03-20T01:16:22.430Z,951.22
2017-03-20T01:17:25.281Z,951.24
2017-03-20T01:18:27.524Z,951.26
2017-03-20T01:19:25.025Z,951.26
2017-03-20T01:20:28.730Z,951.23
2017-03-20T01:21:39.558Z,951.22
2017-03-20T01:22:23.141Z,951.25
2017-03-20T01:23:27.766Z,951.18
2017-03-20T01:24:25.462Z,951.21
2017-03-20T01:25:30.794Z,951.21
2017-03-20T01:26:18.942Z,951.19
2017-03-20T01:27:19.700Z,951.20
2017-03-20T01:28:26.311Z,951.26
2017-03-20T01:29:23.799Z,951.28
2017-03-20T01:30:27.590Z,951.32
2017-03-20T01:31:26.725Z,951.30
2017-03-20T01:32:24.390Z,951.30
2017-03-20T01:33:31.296Z,951.29
2017-03-20T01:34:26.364Z,951.29
2017-03-20T01:35:18.485Z,951.28
2017-03-20T01:36:18.562Z,951.27
2017-03-20T01:37:19.202Z,951.28
2017-03-20T01:38:22.359Z,951.24
2017-03-20T01:39:22.642Z,951.28
2017-03-20T01:40:32.286Z,951.27
2017-03-20T01:41:24.892Z,951.27
2017-03-20T01:42:23.646Z,951.25
2017-03-20T01:43:24.516Z,951.21
2017-03-20T01:44:19.295Z,951.21
2017-03-20T01:45:23.832Z,951.24
2017-03-20T01:46:19.101Z,951.26
2017-03-20T01:47:18.944Z,951.23
2017-03-20T01:48:23.567Z,951.19
2017-03-20T01:49:24.708Z,951.20
2017-03-20T01:50:24.826Z,951.27
2017-03-20T01:51:26.456Z,951.28
2017-03-20T01:52:31.296Z,951.29
2017-03-20T01:53:27.706Z,951.27
2017-03-20T01:54:26.387Z,951.25
2017-03-20T01:55:25.813Z,951.21
2017-03-20T01:56:27.154Z,951.19
2017-03-20T01:57:25.324Z,951.22
2017-03-20T01:58:28.558Z,951.24
2017-03-20T01:59:29.093Z,951.24
2017-03-20T02:00:20.250Z,951.26
2017-03-20T02:01:24.422Z,951.27
2017-03-20T02:02:28.808Z,951.23
2017-03-20T02:03:23.758Z,951.24
2017-03-20T02:04:29.352Z,951.27
2017-03-20T02:05:19.227Z,951.26
2017-03-20T02:06:24.765Z,951.31
2017-03-20T02:07:25.095Z,951.23
2017-03-20T02:08:19.256Z,951.18
2017-03-20T02:09:25.036Z,951.21
2017-03-20T02:10:25.463Z,951.22
2017-03-20T02:11:24.030Z,951.22
2017-03-20T02:12:31.214Z,951.22
2017-03-20T02:13:26.705Z,951.24
2017-03-20T02:14:33.844Z,951.15
2017-03-20T02:15:27.148Z,951.18
2017-03-20T02:16:19.828Z,951.14
2017-03-20T02:17:25.112Z,951.16
2017-03-20T02:18:27.155Z,951.16
2017-03-20T02:19:30.455Z,951.20
2017-03-20T02:20:33.837Z,951.19
2017-03-20T02:21:17.866Z,951.23
2017-03-20T02:22:35.307Z,951.18
2017-03-20T02:23:24.648Z,951.19
2017-03-20T02:24:24.889Z,951.17
2017-03-20T02:25:23.689Z,951.17
2017-03-20T02:26:24.296Z,951.16
2017-03-20T02:27:26.308Z,951.15
2017-03-20T02:28:18.601Z,951.18
2017-03-20T02:29:25.101Z,951.18
2017-03-20T02:30:23.889Z,951.17
2017-03-20T02:31:25.217Z,951.19
2017-03-20T02:32:20.020Z,951.25
2017-03-20T02:33:29.138Z,951.21
2017-03-20T02:34:25.494Z,951.21
2017-03-20T02:35:25.101Z,951.18
2017-03-20T02:36:24.648Z,951.18
2017-03-20T02:37:26.352Z,951.18
2017-03-20T02:38:19.593Z,951.23
2017-03-20T02:39:19.281Z,951.18
2017-03-20T02:40:19.346Z,951.23
2017-03-20T02:41:24.991Z,951.19
2017-03-20T02:42:18.036Z,951.18
2017-03-20T02:43:19.685Z,951.22
2017-03-20T02:44:24.927Z,951.21
2017-03-20T02:45:24.130Z,951.13
2017-03-20T02:46:18.199Z,951.17
2017-03-20T02:47:27.868Z,951.16
2017-03-20T02:48:24.673Z,951.15
2017-03-20T02:49:25.119Z,951.08
2017-03-20T02:50:24.047Z,951.15
2017-03-20T02:51:25.117Z,951.13
2017-03-20T02:52:22.596Z,951.19
2017-03-20T02:53:22.457Z,951.17
2017-03-20T02:54:22.698Z,951.18
2017-03-20T02:55:19.450Z,951.14
2017-03-20T02:56:24.477Z,951.14
2017-03-20T02:57:24.261Z,951.17
2017-03-20T02:58:24.438Z,951.12
2017-03-20T02:59:26.117Z,951.13
2017-03-20T03:00:28.768Z,951.18
2017-03-20T03:01:21.605Z,951.18
2017-03-20T03:02:28.393Z,951.19
2017-03-20T03:03:32.324Z,951.18
2017-03-20T03:04:24.043Z,951.19
2017-03-20T03:05:27.326Z,951.20
2017-03-20T03:06:26.538Z,951.19
2017-03-20T03:07:32.989Z,951.22
2017-03-20T03:08:24.346Z,951.20
2017-03-20T03:09:21.528Z,951.17
2017-03-20T03:10:29.430Z,951.21
2017-03-20T03:11:25.197Z,951.23
2017-03-20T03:12:24.737Z,951.28
2017-03-20T03:13:31.693Z,951.19
2017-03-20T03:14:21.101Z,951.18
2017-03-20T03:15:28.828Z,951.18
2017-03-20T03:16:25.163Z,951.21
2017-03-20T03:17:19.372Z,951.19
2017-03-20T03:18:33.130Z,951.22
2017-03-20T03:19:28.191Z,951.23
2017-03-20T03:21:24.190Z,951.29
2017-03-20T03:22:33.306Z,951.29
2017-03-20T03:23:22.498Z,951.30
2017-03-20T03:24:23.810Z,951.28
2017-03-20T03:25:24.867Z,951.26
2017-03-20T03:26:25.091Z,951.27
2017-03-20T03:27:24.819Z,951.28
2017-03-20T03:28:23.722Z,951.29
2017-03-20T03:29:25.446Z,951.32
2017-03-20T03:30:28.893Z,951.31
2017-03-20T03:31:24.698Z,951.30
2017-03-20T03:32:24.829Z,951.34
2017-03-20T03:33:26.970Z,951.30
2017-03-20T03:34:25.171Z,951.30
2017-03-20T03:35:23.989Z,951.31
2017-03-20T03:36:23.681Z,951.31
2017-03-20T03:37:25.484Z,951.29
2017-03-20T03:38:24.820Z,951.27
2017-03-20T03:39:24.598Z,951.24
2017-03-20T03:40:24.775Z,951.27
2017-03-20T03:41:25.362Z,951.31
2017-03-20T03:42:24.842Z,951.26
2017-03-20T03:43:25.167Z,951.30
2017-03-20T03:44:19.706Z,951.27
2017-03-20T03:45:24.182Z,951.32
2017-03-20T03:46:23.941Z,951.30
2017-03-20T03:47:17.958Z,951.32
2017-03-20T03:48:25.028Z,951.35
2017-03-20T03:49:24.706Z,951.29
2017-03-20T03:50:23.567Z,951.31
2017-03-20T03:51:24.040Z,951.31
2017-03-20T03:52:25.819Z,951.30
2017-03-20T03:53:30.290Z,951.30
2017-03-20T03:54:18.922Z,951.31
2017-03-20T03:55:19.067Z,951.32
2017-03-20T03:56:25.094Z,951.32
2017-03-20T03:57:24.696Z,951.33
2017-03-20T03:58:26.702Z,951.29
2017-03-20T03:59:24.575Z,951.30
2017-03-20T04:00:24.370Z,951.29
2017-03-20T04:01:24.142Z,951.37
2017-03-20T04:02:27.564Z,951.34
2017-03-20T04:03:28.405Z,951.37
2017-03-20T04:04:24.332Z,951.35
2017-03-20T04:05:25.013Z,951.37
2017-03-20T04:06:24.864Z,951.39
2017-03-20T04:07:24.768Z,951.37
2017-03-20T04:08:21.148Z,951.37
2017-03-20T04:09:30.127Z,951.38
2017-03-20T04:10:24.784Z,951.35
2017-03-20T04:11:19.409Z,951.41
2017-03-20T04:12:24.617Z,951.42
2017-03-20T04:13:24.806Z,951.44
2017-03-20T04:14:24.953Z,951.41
2017-03-20T04:15:25.864Z,951.43
2017-03-20T04:16:24.917Z,951.45
2017-03-20T04:17:24.576Z,951.42
2017-03-20T04:18:24.753Z,951.48
2017-03-20T04:19:24.936Z,951.47
2017-03-20T04:20:31.108Z,951.53
2017-03-20T04:21:27.436Z,951.48
2017-03-20T04:22:25.338Z,951.48
2017-03-20T04:23:24.558Z,951.53
2017-03-20T04:24:24.797Z,951.51
2017-03-20T04:25:17.826Z,951.50
2017-03-20T04:26:25.455Z,951.53
2017-03-20T04:27:20.131Z,951.53
2017-03-20T04:28:25.234Z,951.49
2017-03-20T04:29:25.028Z,951.52
2017-03-20T04:30:30.342Z,951.51
2017-03-20T04:31:27.428Z,951.52
2017-03-20T04:32:32.088Z,951.52
2017-03-20T04:33:25.255Z,951.50
2017-03-20T04:34:38.659Z,951.56
2017-03-20T04:35:24.516Z,951.57
2017-03-20T04:36:34.893Z,951.59
2017-03-20T04:37:25.242Z,951.57
2017-03-20T04:38:24.710Z,951.51
2017-03-20T04:39:25.250Z,951.56
2017-03-20T04:40:20.016Z,951.59
2017-03-20T04:41:25.359Z,951.60
2017-03-20T04:42:19.446Z,951.59
2017-03-20T04:43:39.061Z,951.57
2017-03-20T04:44:21.431Z,951.57
2017-03-20T04:45:29.982Z,951.55
2017-03-20T04:46:27.511Z,951.59
2017-03-20T04:47:35.401Z,951.55
2017-03-20T04:48:25.182Z,951.54
2017-03-20T04:49:25.252Z,951.57
2017-03-20T04:50:33.630Z,951.50
2017-03-20T04:51:25.384Z,951.51
2017-03-20T04:52:21.029Z,951.53
2017-03-20T04:53:22.830Z,951.56
2017-03-20T04:54:24.934Z,951.51
2017-03-20T04:55:23.652Z,951.53
2017-03-20T04:56:25.261Z,951.54
2017-03-20T04:57:24.363Z,951.50
2017-03-20T04:58:18.681Z,951.54
2017-03-20T04:59:24.845Z,951.53
2017-03-20T05:00:27.471Z,951.54
2017-03-20T05:01:21.918Z,951.53
2017-03-20T05:02:24.547Z,951.56
2017-03-20T05:03:31.444Z,951.62
2017-03-20T05:04:24.551Z,951.59
2017-03-20T05:05:24.653Z,951.65
2017-03-20T05:06:24.649Z,951.62
2017-03-20T05:07:20.589Z,951.63
2017-03-20T05:08:25.332Z,951.60
2017-03-20T05:09:24.565Z,951.58
2017-03-20T05:10:27.816Z,951.59
2017-03-20T05:11:24.890Z,951.63
2017-03-20T05:12:24.863Z,951.63
2017-03-20T05:13:25.199Z,951.66
2017-03-20T05:14:24.365Z,951.61
2017-03-20T05:15:24.169Z,951.68
2017-03-20T05:16:19.586Z,951.65
2017-03-20T05:18:24.403Z,951.67
2017-03-20T05:19:32.222Z,951.69
2017-03-20T05:20:24.655Z,951.70
2017-03-20T05:21:28.856Z,951.70
2017-03-20T05:22:20.071Z,951.66
2017-03-20T05:23:24.826Z,951.72
2017-03-20T05:24:21.056Z,951.69
2017-03-20T05:26:24.697Z,951.76
2017-03-20T05:27:26.856Z,951.77
2017-03-20T05:28:27.079Z,951.80
2017-03-20T05:29:25.336Z,951.71
2017-03-20T05:30:29.317Z,951.71
2017-03-20T05:31:33.082Z,951.78
2017-03-20T05:32:31.675Z,951.72
2017-03-20T05:33:24.829Z,951.79
2017-03-20T05:34:21.784Z,951.80
2017-03-20T05:35:24.934Z,951.78
2017-03-20T05:36:27.461Z,951.80
2017-03-20T05:37:24.568Z,951.78
2017-03-20T05:38:19.332Z,951.83
2017-03-20T05:39:25.216Z,951.86
2017-03-20T05:40:23.263Z,951.88
2017-03-20T05:41:24.246Z,951.90
2017-03-20T05:42:19.241Z,951.90
2017-03-20T05:43:24.967Z,951.95
2017-03-20T05:44:25.214Z,951.94
2017-03-20T05:45:31.292Z,951.92
2017-03-20T05:46:25.068Z,951.94
2017-03-20T05:47:29.651Z,951.89
2017-03-20T05:48:18.835Z,951.89
2017-03-20T05:49:24.053Z,951.88
2017-03-20T05:50:24.148Z,951.88
2017-03-20T05:51:24.475Z,951.92
2017-03-20T05:52:19.543Z,951.91
2017-03-20T05:53:25.059Z,951.89
2017-03-20T05:54:19.155Z,951.96
2017-03-20T05:55:25.325Z,951.92
2017-03-20T05:56:29.274Z,951.96
2017-03-20T05:57:24.486Z,951.96
2017-03-20T05:58:17.668Z,951.98
2017-03-20T05:59:24.355Z,952.01
2017-03-20T06:00:27.477Z,952.03
2017-03-20T06:01:32.205Z,952.05
2017-03-20T06:02:24.470Z,952.01
2017-03-20T06:03:23.917Z,952.01
2017-03-20T06:04:25.115Z,952.02
2017-03-20T06:05:25.293Z,952.04
2017-03-20T06:06:29.064Z,952.01
2017-03-20T06:07:25.067Z,952.05
2017-03-20T06:08:34.040Z,952.04
2017-03-20T06:09:21.157Z,952.08
2017-03-20T06:10:28.597Z,952.07
2017-03-20T06:11:22.717Z,952.08
2017-03-20T06:12:19.212Z,952.12
2017-03-20T06:13:19.190Z,952.13
2017-03-20T06:14:24.790Z,952.15
2017-03-20T06:15:22.888Z,952.14
2017-03-20T06:16:24.787Z,952.13
2017-03-20T06:17:24.065Z,952.13
2017-03-20T06:18:24.764Z,952.13
2017-03-20T06:19:32.477Z,952.12
2017-03-20T06:20:24.480Z,952.18
2017-03-20T06:21:23.644Z,952.18
2017-03-20T06:22:19.169Z,952.17
2017-03-20T06:23:24.962Z,952.15
2017-03-20T06:24:18.601Z,952.15
2017-03-20T06:25:25.080Z,952.21
2017-03-20T06:26:24.694Z,952.29
2017-03-20T06:27:23.570Z,952.25
2017-03-20T06:28:24.445Z,952.25
2017-03-20T06:29:24.345Z,952.25
2017-03-20T06:30:29.863Z,952.24
2017-03-20T06:31:27.043Z,952.33
2017-03-20T06:32:25.377Z,952.35
2017-03-20T06:33:25.431Z,952.38
2017-03-20T06:34:20.189Z,952.36
2017-03-20T06:35:23.834Z,952.29
2017-03-20T06:36:27.798Z,952.30
2017-03-20T06:37:19.209Z,952.32
2017-03-20T06:38:25.069Z,952.35
2017-03-20T06:39:29.329Z,952.36
2017-03-20T06:40:24.336Z,952.27
2017-03-20T06:41:19.162Z,952.27
2017-03-20T06:42:19.235Z,952.37
2017-03-20T06:43:18.063Z,952.37
2017-03-20T06:44:10.816Z,952.34
2017-03-20T06:45:33.828Z,952.31
2017-03-20T06:46:27.084Z,952.29
2017-03-20T06:47:34.077Z,952.31
2017-03-20T06:48:27.566Z,952.30
2017-03-20T06:49:26.634Z,952.28
2017-03-20T06:50:19.228Z,952.29
2017-03-20T06:51:19.036Z,952.32
2017-03-20T06:52:26.823Z,952.39
2017-03-20T06:53:24.162Z,952.34
2017-03-20T06:54:23.047Z,952.35
2017-03-20T06:55:24.173Z,952.37
2017-03-20T06:56:18.488Z,952.39
2017-03-20T06:57:20.698Z,952.33
2017-03-20T06:58:31.591Z,952.38
2017-03-20T06:59:20.307Z,952.37
2017-03-20T07:00:31.638Z,952.29
2017-03-20T07:01:19.287Z,952.34
2017-03-20T07:02:20.898Z,952.37
2017-03-20T07:03:19.658Z,952.35
2017-03-20T07:04:25.415Z,952.35
2017-03-20T07:05:24.576Z,952.37
2017-03-20T07:06:25.356Z,952.40
2017-03-20T07:07:32.530Z,952.39
2017-03-20T07:08:22.298Z,952.38
2017-03-20T07:09:24.833Z,952.42
2017-03-20T07:10:24.595Z,952.40
2017-03-20T07:11:18.989Z,952.41
2017-03-20T07:12:25.151Z,952.46
2017-03-20T07:13:19.920Z,952.49
2017-03-20T07:14:24.370Z,952.46
2017-03-20T07:15:26.345Z,952.45
2017-03-20T07:16:23.218Z,952.49
2017-03-20T07:17:18.293Z,952.49
2017-03-20T07:18:27.356Z,952.51
2017-03-20T07:19:24.500Z,952.50
2017-03-20T07:20:24.577Z,952.45
2017-03-20T07:21:33.212Z,952.45
2017-03-20T07:22:22.175Z,952.42
2017-03-20T07:23:19.290Z,952.44
2017-03-20T07:24:24.413Z,952.46
2017-03-20T07:25:18.906Z,952.50
2017-03-20T07:26:25.794Z,952.55
2017-03-20T07:27:25.192Z,952.56
2017-03-20T07:28:25.175Z,952.51
2017-03-20T07:29:33.821Z,952.49
2017-03-20T07:30:24.881Z,952.47
2017-03-20T07:31:24.929Z,952.45
2017-03-20T07:32:22.912Z,952.47
2017-03-20T07:33:24.605Z,952.49
2017-03-20T07:34:18.973Z,952.53
2017-03-20T07:35:36.583Z,952.54
2017-03-20T07:36:24.875Z,952.54
2017-03-20T07:37:25.018Z,952.53
2017-03-20T07:38:28.807Z,952.48
2017-03-20T07:39:23.027Z,952.54
2017-03-20T07:40:24.809Z,952.55
2017-03-20T07:41:17.849Z,952.51
2017-03-20T07:42:19.887Z,952.49
2017-03-20T07:43:24.378Z,952.49
2017-03-20T07:44:18.654Z,952.51
2017-03-20T07:45:19.362Z,952.50
2017-03-20T07:46:19.091Z,952.49
2017-03-20T07:47:38.887Z,952.51
2017-03-20T07:48:20.086Z,952.47
2017-03-20T07:49:19.484Z,952.44
2017-03-20T07:50:24.233Z,952.49
2017-03-20T07:51:24.920Z,952.51
2017-03-20T07:52:27.951Z,952.52
2017-03-20T07:53:18.213Z,952.53
2017-03-20T07:54:27.288Z,952.55
2017-03-20T07:55:19.447Z,952.54
2017-03-20T07:56:24.625Z,952.52
2017-03-20T07:57:33.628Z,952.51
2017-03-20T07:58:24.616Z,952.52
2017-03-20T07:59:19.135Z,952.53
2017-03-20T08:00:24.565Z,952.53
2017-03-20T08:01:20.631Z,952.49
2017-03-20T08:02:29.288Z,952.54
2017-03-20T08:03:24.599Z,952.54
2017-03-20T08:04:25.038Z,952.53
2017-03-20T08:05:20.715Z,952.52
2017-03-20T08:06:19.130Z,952.49
2017-03-20T08:07:25.345Z,952.50
2017-03-20T08:08:19.276Z,952.44
2017-03-20T08:09:19.063Z,952.48
2017-03-20T08:10:24.207Z,952.45
2017-03-20T08:11:20.322Z,952.48
2017-03-20T08:12:22.534Z,952.47
2017-03-20T08:13:24.593Z,952.43
2017-03-20T08:14:24.572Z,952.47
2017-03-20T09:05:02.888Z,952.41
2017-03-20T09:05:32.630Z,952.45
2017-03-20T09:06:24.788Z,952.43
2017-03-20T09:07:32.424Z,952.41
2017-03-20T09:08:12.982Z,952.41
2017-03-20T09:09:27.339Z,952.42
2017-03-20T09:10:24.460Z,952.41
2017-03-20T09:11:24.676Z,952.42
2017-03-20T09:12:19.071Z,952.40
2017-03-20T09:13:24.220Z,952.40
2017-03-20T09:14:24.343Z,952.35
2017-03-20T09:15:24.722Z,952.36
2017-03-20T09:16:24.311Z,952.37
2017-03-20T09:17:20.394Z,952.39
2017-03-20T09:18:24.695Z,952.41
2017-03-20T09:19:23.013Z,952.39
2017-03-20T09:20:19.558Z,952.36
2017-03-20T09:21:25.262Z,952.38
2017-03-20T09:22:18.631Z,952.39
2017-03-20T09:23:22.947Z,952.39
2017-03-20T09:24:24.801Z,952.40
2017-03-20T09:25:25.396Z,952.32
2017-03-20T09:26:34.296Z,952.42
2017-03-20T09:27:18.340Z,952.33
2017-03-20T09:28:19.472Z,952.44
2017-03-20T09:29:22.451Z,952.43
2017-03-20T09:30:25.172Z,952.44
2017-03-20T09:31:20.885Z,952.47
2017-03-20T09:32:33.304Z,952.44
2017-03-20T09:33:28.702Z,952.45
2017-03-20T09:34:24.630Z,952.40
2017-03-20T09:35:21.399Z,952.40
2017-03-20T09:36:24.854Z,952.37
2017-03-20T09:37:27.809Z,952.41
2017-03-20T09:38:23.661Z,952.42
2017-03-20T09:39:25.211Z,952.41
2017-03-20T09:40:19.407Z,952.40
2017-03-20T09:41:20.156Z,952.40
2017-03-20T09:42:20.179Z,952.39
2017-03-20T09:43:24.557Z,952.38
2017-03-20T09:44:19.620Z,952.40
2017-03-20T09:45:24.971Z,952.38
2017-03-20T09:46:19.031Z,952.39
2017-03-20T09:47:33.713Z,952.33
2017-03-20T09:48:22.356Z,952.37
2017-03-20T09:49:24.429Z,952.34
2017-03-20T09:50:19.574Z,952.28
2017-03-20T09:51:24.787Z,952.24
2017-03-20T09:52:25.025Z,952.27
2017-03-20T09:53:19.679Z,952.23
2017-03-20T09:54:28.104Z,952.25
2017-03-20T09:55:29.311Z,952.20
2017-03-20T09:56:27.749Z,952.19
2017-03-20T09:57:18.339Z,952.21
2017-03-20T09:58:19.215Z,952.16
2017-03-20T09:59:23.882Z,952.18
2017-03-20T10:00:28.616Z,952.14
2017-03-20T10:01:25.352Z,952.12
2017-03-20T10:02:18.661Z,952.15
2017-03-20T10:03:20.201Z,952.14
2017-03-20T10:04:21.116Z,952.10
2017-03-20T10:05:29.380Z,952.10
2017-03-20T10:06:25.070Z,952.06
2017-03-20T10:07:19.024Z,952.01
2017-03-20T10:08:19.596Z,951.99
2017-03-20T10:09:24.814Z,951.97
2017-03-20T10:10:18.914Z,951.95
2017-03-20T10:11:28.456Z,951.93
2017-03-20T10:12:21.905Z,951.94
2017-03-20T10:13:25.271Z,951.95
2017-03-20T10:14:25.062Z,951.89
2017-03-20T10:15:24.794Z,951.90
2017-03-20T10:16:24.974Z,951.92
2017-03-20T10:17:19.515Z,951.90
2017-03-20T10:18:33.922Z,951.89
2017-03-20T10:19:25.058Z,951.91
2017-03-20T10:20:30.279Z,951.88
2017-03-20T10:21:22.931Z,951.91
2017-03-20T10:22:19.019Z,951.82
2017-03-20T10:23:25.742Z,951.83
2017-03-20T10:24:24.592Z,951.80
2017-03-20T10:25:24.456Z,951.83
2017-03-20T10:26:22.509Z,951.80
2017-03-20T10:27:22.777Z,951.82
2017-03-20T10:28:23.902Z,951.78
2017-03-20T10:29:28.517Z,951.78
2017-03-20T10:30:23.519Z,951.75
2017-03-20T10:31:24.651Z,951.77
2017-03-20T10:32:19.376Z,951.74
2017-03-20T10:33:19.484Z,951.71
2017-03-20T10:34:24.577Z,951.65
2017-03-20T10:35:22.730Z,951.64
2017-03-20T10:36:27.552Z,951.62
2017-03-20T10:37:27.786Z,951.57
2017-03-20T10:38:24.459Z,951.57
2017-03-20T10:39:20.704Z,951.56
2017-03-20T10:40:25.079Z,951.59
2017-03-20T10:41:24.250Z,951.52
2017-03-20T10:42:18.690Z,951.52
2017-03-20T10:43:20.275Z,951.54
2017-03-20T10:44:24.488Z,951.44
2017-03-20T10:45:28.812Z,951.43
2017-03-20T10:46:26.640Z,951.46
2017-03-20T10:47:19.570Z,951.46
2017-03-20T10:48:22.627Z,951.46
2017-03-20T10:49:26.456Z,951.44
2017-03-20T10:50:29.005Z,951.44
2017-03-20T10:51:33.564Z,951.48
2017-03-20T10:52:25.659Z,951.43
2017-03-20T10:53:20.815Z,951.43
2017-03-20T10:54:30.047Z,951.48
2017-03-20T10:55:19.038Z,951.40
2017-03-20T10:56:24.665Z,951.37
2017-03-20T10:57:20.691Z,951.35
2017-03-20T10:58:22.871Z,951.31
2017-03-20T10:59:19.158Z,951.35
2017-03-20T11:00:23.372Z,951.29
2017-03-20T11:01:27.581Z,951.30
2017-03-20T11:02:24.941Z,951.35
2017-03-20T11:03:24.385Z,951.38
2017-03-20T11:04:21.313Z,951.37
2017-03-20T11:05:39.262Z,951.39
2017-03-20T11:06:24.844Z,951.39
2017-03-20T11:07:23.401Z,951.40
2017-03-20T11:08:23.490Z,951.38
2017-03-20T11:09:24.605Z,951.34
2017-03-20T11:10:20.457Z,951.38
2017-03-20T11:11:20.576Z,951.32
2017-03-20T11:12:24.582Z,951.34
2017-03-20T11:13:20.382Z,951.35
2017-03-20T11:14:31.980Z,951.37
2017-03-20T11:15:24.673Z,951.29
2017-03-20T11:16:25.017Z,951.24
2017-03-20T11:17:27.616Z,951.28
2017-03-20T11:18:22.392Z,951.29
2017-03-20T11:19:18.515Z,951.29
2017-03-20T11:20:23.814Z,951.26
2017-03-20T11:21:27.663Z,951.28
2017-03-20T11:22:33.715Z,951.26
2017-03-20T11:23:26.976Z,951.21
2017-03-20T11:24:25.369Z,951.26
2017-03-20T11:25:22.502Z,951.29
2017-03-20T11:26:24.712Z,951.22
2017-03-20T11:27:27.089Z,951.16
2017-03-20T11:28:25.199Z,951.15
2017-03-20T11:29:28.334Z,951.13
2017-03-20T11:30:28.355Z,951.10
2017-03-20T11:31:19.602Z,951.10
2017-03-20T11:32:19.277Z,951.05
2017-03-20T11:33:19.565Z,951.07
2017-03-20T11:34:25.202Z,951.06
2017-03-20T11:35:30.912Z,951.05
2017-03-20T11:36:21.224Z,951.04
2017-03-20T11:37:30.893Z,951.00
2017-03-20T11:38:22.686Z,950.95
2017-03-20T11:39:28.368Z,950.97
2017-03-20T11:40:32.838Z,950.98
2017-03-20T11:41:25.070Z,950.95
2017-03-20T11:42:19.637Z,950.91
2017-03-20T11:43:24.655Z,950.94
2017-03-20T11:44:27.864Z,950.90
2017-03-20T11:45:25.060Z,950.86
2017-03-20T11:46:12.594Z,950.80
2017-03-20T11:47:12.576Z,950.83
2017-03-20T11:48:24.658Z,950.78
2017-03-20T11:49:24.843Z,950.77
2017-03-20T11:50:33.597Z,950.71
2017-03-20T11:51:18.708Z,950.73
2017-03-20T11:52:18.840Z,950.70
2017-03-20T11:53:31.923Z,950.70
2017-03-20T11:54:22.353Z,950.74
2017-03-20T11:55:25.197Z,950.74
2017-03-20T11:56:24.469Z,950.70
2017-03-20T11:57:20.529Z,950.67
2017-03-20T11:58:25.075Z,950.65
2017-03-20T11:59:23.833Z,950.67
2017-03-20T12:00:32.936Z,950.62
2017-03-20T12:01:23.519Z,950.63
2017-03-20T12:02:27.779Z,950.61
2017-03-20T12:03:20.264Z,950.62
2017-03-20T12:04:18.686Z,950.62
2017-03-20T12:05:19.664Z,950.61
2017-03-20T12:06:24.747Z,950.57
2017-03-20T12:07:25.074Z,950.58
2017-03-20T12:08:25.901Z,950.55
2017-03-20T12:09:24.862Z,950.54
2017-03-20T12:10:20.626Z,950.52
2017-03-20T12:11:20.939Z,950.52
2017-03-20T12:12:20.438Z,950.51
2017-03-20T12:13:21.001Z,950.51
2017-03-20T12:14:25.104Z,950.42
2017-03-20T12:15:19.269Z,950.46
2017-03-20T12:16:24.366Z,950.40
2017-03-20T12:17:25.130Z,950.41
2017-03-20T12:18:21.222Z,950.37
2017-03-20T12:19:28.361Z,950.39
2017-03-20T12:20:28.563Z,950.36
2017-03-20T12:21:27.732Z,950.38
2017-03-20T12:22:24.877Z,950.41
2017-03-20T12:23:30.302Z,950.37
2017-03-20T12:24:27.906Z,950.32
2017-03-20T12:25:25.056Z,950.31
2017-03-20T12:26:25.199Z,950.35
2017-03-20T12:27:27.722Z,950.34
2017-03-20T12:28:21.201Z,950.32
2017-03-20T12:29:28.304Z,950.26
2017-03-20T12:30:25.202Z,950.29
2017-03-20T12:31:18.711Z,950.28
2017-03-20T12:32:20.308Z,950.43
2017-03-20T12:33:24.429Z,950.30
2017-03-20T12:34:24.675Z,950.27
2017-03-20T12:35:29.663Z,950.24
2017-03-20T12:36:31.879Z,950.18
2017-03-20T12:37:25.017Z,950.26
2017-03-20T12:38:19.059Z,950.22
2017-03-20T12:39:19.453Z,950.24
2017-03-20T12:40:19.268Z,950.23
2017-03-20T12:41:19.015Z,950.19
2017-03-20T12:42:29.233Z,950.17
2017-03-20T12:43:24.311Z,950.11
2017-03-20T12:44:24.138Z,950.08
2017-03-20T12:45:37.478Z,950.05
2017-03-20T12:46:28.317Z,950.04
2017-03-20T12:47:19.056Z,950.17
2017-03-20T12:48:19.804Z,950.07
2017-03-20T12:49:27.912Z,950.15
2017-03-20T12:50:24.403Z,950.03
2017-03-20T12:51:19.791Z,950.09
2017-03-20T12:52:24.393Z,950.05
2017-03-20T12:53:26.917Z,949.99
2017-03-20T12:54:24.172Z,949.95
2017-03-20T12:55:25.362Z,949.99
2017-03-20T12:56:17.293Z,950.02
2017-03-20T12:57:18.589Z,949.94
2017-03-20T12:58:28.454Z,949.93
2017-03-20T12:59:19.024Z,949.87
2017-03-20T13:00:20.887Z,949.86
2017-03-20T13:01:18.153Z,949.86
2017-03-20T13:02:23.023Z,949.78
2017-03-20T13:03:33.143Z,949.82
2017-03-20T13:04:23.319Z,949.79
2017-03-20T13:05:32.376Z,949.74
2017-03-20T13:06:28.481Z,949.70
2017-03-20T13:07:21.100Z,949.70
2017-03-20T13:08:29.031Z,949.68
2017-03-20T13:09:24.713Z,949.71
2017-03-20T13:10:20.293Z,949.74
2017-03-20T13:11:24.970Z,949.75
2017-03-20T13:12:32.756Z,949.80
2017-03-20T13:13:19.707Z,949.73
2017-03-20T13:14:25.246Z,949.70
2017-03-20T13:15:27.901Z,949.72
2017-03-20T13:16:19.999Z,949.72
2017-03-20T13:17:20.162Z,949.74
2017-03-20T13:18:24.405Z,949.73
2017-03-20T13:19:20.421Z,949.75
2017-03-20T13:20:28.366Z,949.79
2017-03-20T13:21:24.495Z,949.78